BADAN METEOROLOGI, KLIMATOLOGI, DAN GEOFISIKA
STASIUN METEOROLOGI PALOH SAMBAS
Jalan Bandar Udara Liku, Kec. Paloh, Kab. Sambas
email: stamet.paloh@bmkg.go.id | website: bmkgpalohsambas.com | Kode Pos 79466


METEOROLOGICAL REPORT FOR TAKE OFF AND LANDING

  AERODROME IDENTIFICATION   WIOH
  TIME OF THE OBSERVATION   150400 Z
  SURFACE WIND DIRECTION, SPEED AND SIGNIFICANT VARIATION   12002 KT
  HORIZONTAL VISIBILITY   10 KM
  RUNWAY VISUAL RANGE   -
  PRESENT WEATHER   NIL
  AMOUNT AND HEIGHT OF BASE OF LOW CLOUD   SCT1400FT
  AIR TEMPERATURE AND DEW POINT TEMPERATURE   T 31    DP 25
  Q N H   1009.2 mb
  29.8 mmHg
  Q F E   1007.5 mb
  29.75 mmHg
  SUPPLEMENTARY INFORMATION   

  OBSERVER


  SUDIAR

  RMK:




  METAR:

  METAR WIOH 150400Z 12002KT 9999 SCT014 31/25 Q1009 =